sensor_id;sensor_type;location;lat;lon;timestamp;pressure;altitude;pressure_sealevel;temperature;humidity
19831;BME280;10076;52.008;4.708;2022-08-01T00:00:25;101758.16;;;21.91;100.00
19831;BME280;10076;52.008;4.708;2022-08-01T00:02:50;101752.38;;;22.04;100.00
19831;BME280;10076;52.008;4.708;2022-08-01T00:05:16;101760.03;;;21.99;100.00
19831;BME280;10076;52.008;4.708;2022-08-01T00:07:42;101755.09;;;21.86;100.00
19831;BME280;10076;52.008;4.708;2022-08-01T00:10:10;101760.19;;;21.97;100.00
19831;BME280;10076;52.008;4.708;2022-08-01T00:12:36;101759.63;;;21.86;100.00
19831;BME280;10076;52.008;4.708;2022-08-01T00:15:02;101758.13;;;21.83;100.00
19831;BME280;10076;52.008;4.708;2022-08-01T00:17:27;101765.41;;;21.73;100.00
19831;BME280;10076;52.008;4.708;2022-08-01T00:19:53;101767.19;;;21.82;100.00
19831;BME280;10076;52.008;4.708;2022-08-01T00:22:18;101765.84;;;21.86;100.00
19831;BME280;10076;52.008;4.708;2022-08-01T00:24:43;101778.94;;;21.81;100.00
19831;BME280;10076;52.008;4.708;2022-08-01T00:27:09;101765.78;;;21.78;100.00
19831;BME280;10076;52.008;4.708;2022-08-01T00:29:34;101764.63;;;21.81;100.00
19831;BME280;10076;52.008;4.708;2022-08-01T00:31:59;101775.72;;;21.78;100.00
19831;BME280;10076;52.008;4.708;2022-08-01T00:34:25;101769.34;;;21.79;100.00
19831;BME280;10076;52.008;4.708;2022-08-01T00:36:50;101768.19;;;21.81;100.00
19831;BME280;10076;52.008;4.708;2022-08-01T00:39:15;101777.56;;;21.77;100.00
19831;BME280;10076;52.008;4.708;2022-08-01T00:41:40;101774.09;;;21.67;100.00
19831;BME280;10076;52.008;4.708;2022-08-01T00:44:06;101771.13;;;21.70;100.00
19831;BME280;10076;52.008;4.708;2022-08-01T00:46:32;101773.97;;;21.69;100.00
19831;BME280;10076;52.008;4.708;2022-08-01T00:48:58;101766.19;;;21.66;100.00
19831;BME280;10076;52.008;4.708;2022-08-01T00:51:24;101767.72;;;21.68;100.00
19831;BME280;10076;52.008;4.708;2022-08-01T00:53:50;101772.28;;;21.68;100.00
19831;BME280;10076;52.008;4.708;2022-08-01T00:56:16;101769.06;;;21.90;100.00
19831;BME280;10076;52.008;4.708;2022-08-01T00:58:41;101757.72;;;21.78;100.00
19831;BME280;10076;52.008;4.708;2022-08-01T01:01:07;101766.19;;;21.83;100.00
19831;BME280;10076;52.008;4.708;2022-08-01T01:03:33;101767.09;;;21.74;100.00
19831;BME280;10076;52.008;4.708;2022-08-01T01:11:47;101759.41;;;21.79;100.00
19831;BME280;10076;52.008;4.708;2022-08-01T01:14:21;101757.84;;;21.69;100.00
19831;BME280;10076;52.008;4.708;2022-08-01T01:16:49;101764.53;;;21.48;100.00
19831;BME280;10076;52.008;4.708;2022-08-01T01:19:17;101758.59;;;21.61;100.00
19831;BME280;10076;52.008;4.708;2022-08-01T01:27:51;101762.06;;;21.71;100.00
19831;BME280;10076;52.008;4.708;2022-08-01T01:30:23;101752.97;;;21.72;100.00
19831;BME280;10076;52.008;4.708;2022-08-01T01:32:52;101752.97;;;21.72;100.00
19831;BME280;10076;52.008;4.708;2022-08-01T01:35:22;101755.53;;;21.56;100.00
19831;BME280;10076;52.008;4.708;2022-08-01T01:37:53;101762.97;;;21.62;100.00
19831;BME280;10076;52.008;4.708;2022-08-01T01:40:22;101771.94;;;21.71;100.00
19831;BME280;10076;52.008;4.708;2022-08-01T01:42:49;101769.84;;;21.57;100.00
19831;BME280;10076;52.008;4.708;2022-08-01T01:45:15;101767.44;;;21.37;100.00
19831;BME280;10076;52.008;4.708;2022-08-01T01:47:42;101779.44;;;21.25;100.00
19831;BME280;10076;52.008;4.708;2022-08-01T01:50:11;101780.09;;;21.27;100.00
19831;BME280;10076;52.008;4.708;2022-08-01T01:52:39;101782.78;;;21.27;100.00
19831;BME280;10076;52.008;4.708;2022-08-01T01:55:07;101779.66;;;21.31;100.00
19831;BME280;10076;52.008;4.708;2022-08-01T01:57:36;101777.88;;;21.05;100.00
19831;BME280;10076;52.008;4.708;2022-08-01T02:00:03;101782.47;;;20.95;100.00
19831;BME280;10076;52.008;4.708;2022-08-01T02:02:32;101787.78;;;21.04;100.00
19831;BME280;10076;52.008;4.708;2022-08-01T02:04:58;101776.97;;;21.14;100.00
19831;BME280;10076;52.008;4.708;2022-08-01T02:07:25;101772.97;;;21.18;100.00
19831;BME280;10076;52.008;4.708;2022-08-01T02:09:52;101776.75;;;21.25;100.00
19831;BME280;10076;52.008;4.708;2022-08-01T02:12:20;101773.97;;;20.99;100.00
19831;BME280;10076;52.008;4.708;2022-08-01T02:14:48;101780.16;;;21.00;100.00
19831;BME280;10076;52.008;4.708;2022-08-01T02:17:19;101778.84;;;21.04;100.00
19831;BME280;10076;52.008;4.708;2022-08-01T02:19:46;101782.63;;;21.11;100.00
19831;BME280;10076;52.008;4.708;2022-08-01T02:25:15;101778.88;;;21.21;100.00
19831;BME280;10076;52.008;4.708;2022-08-01T02:27:50;101784.31;;;21.29;100.00
19831;BME280;10076;52.008;4.708;2022-08-01T02:30:17;101772.97;;;21.18;100.00
19831;BME280;10076;52.008;4.708;2022-08-01T02:32:57;101770.66;;;21.05;100.00
19831;BME280;10076;52.008;4.708;2022-08-01T02:35:26;101784.22;;;21.04;100.00
19831;BME280;10076;52.008;4.708;2022-08-01T02:37:54;101775.72;;;21.08;100.00
19831;BME280;10076;52.008;4.708;2022-08-01T02:40:20;101779.00;;;21.02;100.00
19831;BME280;10076;52.008;4.708;2022-08-01T02:42:50;101782.34;;;21.14;100.00
19831;BME280;10076;52.008;4.708;2022-08-01T02:45:17;101782.41;;;21.22;100.00
19831;BME280;10076;52.008;4.708;2022-08-01T02:47:44;101772.88;;;21.10;100.00
19831;BME280;10076;52.008;4.708;2022-08-01T02:50:12;101786.69;;;21.15;100.00
19831;BME280;10076;52.008;4.708;2022-08-01T02:52:40;101787.09;;;21.20;100.00
19831;BME280;10076;52.008;4.708;2022-08-01T02:55:08;101784.94;;;21.06;100.00
19831;BME280;10076;52.008;4.708;2022-08-01T02:57:35;101786.56;;;21.16;100.00
19831;BME280;10076;52.008;4.708;2022-08-01T03:00:04;101785.38;;;21.01;100.00
19831;BME280;10076;52.008;4.708;2022-08-01T03:02:31;101782.38;;;20.87;100.00
19831;BME280;10076;52.008;4.708;2022-08-01T03:04:57;101781.31;;;20.97;100.00
19831;BME280;10076;52.008;4.708;2022-08-01T03:07:24;101780.16;;;21.00;100.00
19831;BME280;10076;52.008;4.708;2022-08-01T03:09:51;101777.69;;;21.06;100.00
19831;BME280;10076;52.008;4.708;2022-08-01T03:12:20;101786.69;;;21.15;100.00
19831;BME280;10076;52.008;4.708;2022-08-01T03:14:50;101786.47;;;20.91;100.00
19831;BME280;10076;52.008;4.708;2022-08-01T03:17:18;101788.75;;;21.03;100.00
19831;BME280;10076;52.008;4.708;2022-08-01T03:19:46;101787.06;;;20.85;100.00
19831;BME280;10076;52.008;4.708;2022-08-01T03:22:13;101800.56;;;20.93;100.00
19831;BME280;10076;52.008;4.708;2022-08-01T03:24:41;101795.50;;;20.90;100.00
19831;BME280;10076;52.008;4.708;2022-08-01T03:27:08;101796.72;;;20.69;100.00
19831;BME280;10076;52.008;4.708;2022-08-01T03:29:34;101793.88;;;20.80;100.00
19831;BME280;10076;52.008;4.708;2022-08-01T03:32:01;101791.50;;;20.94;100.00
19831;BME280;10076;52.008;4.708;2022-08-01T03:34:28;101798.34;;;21.06;100.00
19831;BME280;10076;52.008;4.708;2022-08-01T03:39:31;101800.00;;;20.89;100.00
19831;BME280;10076;52.008;4.708;2022-08-01T03:42:03;101802.09;;;20.95;100.00
19831;BME280;10076;52.008;4.708;2022-08-01T03:44:32;101797.28;;;20.99;100.00
19831;BME280;10076;52.008;4.708;2022-08-01T03:47:01;101796.88;;;20.94;100.00
19831;BME280;10076;52.008;4.708;2022-08-01T03:49:30;101800.94;;;20.98;100.00
19831;BME280;10076;52.008;4.708;2022-08-01T03:51:59;101798.25;;;20.98;100.00
19831;BME280;10076;52.008;4.708;2022-08-01T03:54:31;101795.56;;;20.98;100.00
19831;BME280;10076;52.008;4.708;2022-08-01T03:56:59;101794.13;;;21.03;100.00
19831;BME280;10076;52.008;4.708;2022-08-01T03:59:26;101796.94;;;21.11;100.00
19831;BME280;10076;52.008;4.708;2022-08-01T04:01:52;101793.00;;;21.06;100.00
19831;BME280;10076;52.008;4.708;2022-08-01T04:04:18;101795.50;;;20.90;100.00
19831;BME280;10076;52.008;4.708;2022-08-01T04:06:44;101802.34;;;21.02;100.00
19831;BME280;10076;52.008;4.708;2022-08-01T04:09:10;101795.44;;;20.99;100.00
19831;BME280;10076;52.008;4.708;2022-08-01T04:11:37;101799.72;;;21.10;100.00
19831;BME280;10076;52.008;4.708;2022-08-01T04:14:03;101791.47;;;21.03;100.00
19831;BME280;10076;52.008;4.708;2022-08-01T04:16:29;101785.91;;;21.05;100.00
19831;BME280;10076;52.008;4.708;2022-08-01T04:18:54;101789.75;;;20.85;100.00
19831;BME280;10076;52.008;4.708;2022-08-01T04:21:22;101780.06;;;20.65;100.00
19831;BME280;10076;52.008;4.708;2022-08-01T04:23:48;101788.28;;;20.64;100.00
19831;BME280;10076;52.008;4.708;2022-08-01T04:26:17;101792.31;;;20.50;100.00
19831;BME280;10076;52.008;4.708;2022-08-01T04:28:44;101793.13;;;20.51;100.00
19831;BME280;10076;52.008;4.708;2022-08-01T04:31:11;101807.03;;;20.37;100.00
19831;BME280;10076;52.008;4.708;2022-08-01T04:33:44;101812.34;;;20.46;100.00
19831;BME280;10076;52.008;4.708;2022-08-01T04:36:12;101807.97;;;20.45;100.00
19831;BME280;10076;52.008;4.708;2022-08-01T04:38:40;101822.81;;;20.49;100.00
19831;BME280;10076;52.008;4.708;2022-08-01T04:41:09;101815.59;;;20.50;100.00
19831;BME280;10076;52.008;4.708;2022-08-01T04:43:38;101816.50;;;20.77;100.00
19831;BME280;10076;52.008;4.708;2022-08-01T04:46:06;101814.50;;;20.79;100.00
19831;BME280;10076;52.008;4.708;2022-08-01T04:48:32;101825.25;;;20.79;100.00
19831;BME280;10076;52.008;4.708;2022-08-01T04:51:00;101816.38;;;20.96;100.00
19831;BME280;10076;52.008;4.708;2022-08-01T04:53:25;101820.34;;;20.92;100.00
19831;BME280;10076;52.008;4.708;2022-08-01T04:55:53;101817.97;;;20.89;100.00
19831;BME280;10076;52.008;4.708;2022-08-01T04:58:19;101823.25;;;20.81;100.00
19831;BME280;10076;52.008;4.708;2022-08-01T05:00:45;101822.03;;;20.93;100.00
19831;BME280;10076;52.008;4.708;2022-08-01T05:03:10;101830.38;;;20.99;100.00
19831;BME280;10076;52.008;4.708;2022-08-01T05:05:36;101822.53;;;21.06;100.00
19831;BME280;10076;52.008;4.708;2022-08-01T05:08:01;101826.44;;;20.94;100.00
19831;BME280;10076;52.008;4.708;2022-08-01T05:10:27;101832.72;;;21.02;100.00
19831;BME280;10076;52.008;4.708;2022-08-01T05:12:53;101829.72;;;20.88;100.00
19831;BME280;10076;52.008;4.708;2022-08-01T05:15:18;101832.94;;;20.91;100.00
19831;BME280;10076;52.008;4.708;2022-08-01T05:17:44;101836.69;;;21.08;100.00
19831;BME280;10076;52.008;4.708;2022-08-01T05:20:10;101830.31;;;21.26;100.00
19831;BME280;10076;52.008;4.708;2022-08-01T05:22:37;101834.22;;;21.32;100.00
19831;BME280;10076;52.008;4.708;2022-08-01T05:25:03;101827.84;;;21.33;100.00
19831;BME280;10076;52.008;4.708;2022-08-01T05:27:30;101826.84;;;21.34;100.00
19831;BME280;10076;52.008;4.708;2022-08-01T05:29:55;101831.69;;;21.30;100.00
19831;BME280;10076;52.008;4.708;2022-08-01T05:32:21;101831.34;;;21.43;100.00
19831;BME280;10076;52.008;4.708;2022-08-01T05:34:46;101828.31;;;21.46;100.00
19831;BME280;10076;52.008;4.708;2022-08-01T05:37:11;101831.19;;;21.61;100.00
19831;BME280;10076;52.008;4.708;2022-08-01T05:39:37;101831.81;;;21.55;100.00
19831;BME280;10076;52.008;4.708;2022-08-01T05:42:02;101831.56;;;21.49;100.00
19831;BME280;10076;52.008;4.708;2022-08-01T05:44:27;101834.81;;;21.53;100.00
19831;BME280;10076;52.008;4.708;2022-08-01T05:46:53;101841.22;;;21.25;100.00
19831;BME280;10076;52.008;4.708;2022-08-01T05:49:18;101839.91;;;21.11;100.00
19831;BME280;10076;52.008;4.708;2022-08-01T05:51:43;101843.53;;;21.20;100.00
19831;BME280;10076;52.008;4.708;2022-08-01T05:54:09;101846.22;;;21.20;100.00
19831;BME280;10076;52.008;4.708;2022-08-01T05:56:34;101841.91;;;21.27;100.00
19831;BME280;10076;52.008;4.708;2022-08-01T05:58:59;101846.81;;;21.14;100.00
19831;BME280;10076;52.008;4.708;2022-08-01T06:01:25;101845.66;;;21.16;100.00
19831;BME280;10076;52.008;4.708;2022-08-01T06:03:50;101848.06;;;20.92;100.00
19831;BME280;10076;52.008;4.708;2022-08-01T06:06:16;101857.94;;;20.92;100.00
19831;BME280;10076;52.008;4.708;2022-08-01T06:08:41;101861.56;;;21.00;100.00
19831;BME280;10076;52.008;4.708;2022-08-01T06:11:07;101869.00;;;20.89;100.00
19831;BME280;10076;52.008;4.708;2022-08-01T06:13:32;101867.63;;;20.85;100.00
19831;BME280;10076;52.008;4.708;2022-08-01T06:15:57;101862.13;;;20.77;100.00
19831;BME280;10076;52.008;4.708;2022-08-01T06:18:23;101865.22;;;20.73;100.00
19831;BME280;10076;52.008;4.708;2022-08-01T06:20:49;101867.06;;;20.82;100.00
19831;BME280;10076;52.008;4.708;2022-08-01T06:23:14;101870.59;;;20.82;100.00
19831;BME280;10076;52.008;4.708;2022-08-01T06:25:44;101869.19;;;20.78;100.00
19831;BME280;10076;52.008;4.708;2022-08-01T06:28:09;101871.97;;;20.86;100.00
19831;BME280;10076;52.008;4.708;2022-08-01T06:30:34;101877.09;;;21.06;100.00
19831;BME280;10076;52.008;4.708;2022-08-01T06:33:00;101871.16;;;21.03;100.00
19831;BME280;10076;52.008;4.708;2022-08-01T06:35:26;101873.53;;;21.15;100.00
19831;BME280;10076;52.008;4.708;2022-08-01T06:37:53;101886.34;;;21.21;100.00
19831;BME280;10076;52.008;4.708;2022-08-01T06:40:19;101875.84;;;21.28;100.00
19831;BME280;10076;52.008;4.708;2022-08-01T06:42:44;101878.91;;;21.33;100.00
19831;BME280;10076;52.008;4.708;2022-08-01T06:45:12;101881.91;;;21.47;100.00
19831;BME280;10076;52.008;4.708;2022-08-01T06:47:39;101887.81;;;21.60;100.00
19831;BME280;10076;52.008;4.708;2022-08-01T06:50:06;101884.34;;;21.67;100.00
19831;BME280;10076;52.008;4.708;2022-08-01T06:52:32;101883.13;;;21.79;100.00
19831;BME280;10076;52.008;4.708;2022-08-01T06:54:58;101888.66;;;21.78;100.00
19831;BME280;10076;52.008;4.708;2022-08-01T06:57:24;101891.34;;;21.78;100.00
19831;BME280;10076;52.008;4.708;2022-08-01T06:59:49;101881.97;;;21.82;100.00
19831;BME280;10076;52.008;4.708;2022-08-01T07:02:15;101882.91;;;21.73;100.00
19831;BME280;10076;52.008;4.708;2022-08-01T07:04:40;101886.16;;;21.50;100.00
19831;BME280;10076;52.008;4.708;2022-08-01T07:07:06;101889.28;;;21.55;100.00
19831;BME280;10076;52.008;4.708;2022-08-01T07:09:31;101894.81;;;21.44;100.00
19831;BME280;10076;52.008;4.708;2022-08-01T07:11:56;101897.34;;;21.28;100.00
19831;BME280;10076;52.008;4.708;2022-08-01T07:14:22;101901.81;;;21.37;100.00
19831;BME280;10076;52.008;4.708;2022-08-01T07:16:48;101904.25;;;21.30;100.00
19831;BME280;10076;52.008;4.708;2022-08-01T07:19:14;101903.56;;;21.28;100.00
19831;BME280;10076;52.008;4.708;2022-08-01T07:21:40;101903.56;;;21.28;100.00
19831;BME280;10076;52.008;4.708;2022-08-01T07:24:06;101903.56;;;21.28;100.00
19831;BME280;10076;52.008;4.708;2022-08-01T07:26:32;101904.94;;;21.32;100.00
19831;BME280;10076;52.008;4.708;2022-08-01T07:28:57;101903.34;;;21.39;100.00
19831;BME280;10076;52.008;4.708;2022-08-01T07:31:23;101901.50;;;21.40;100.00
19831;BME280;10076;52.008;4.708;2022-08-01T07:33:49;101908.75;;;21.39;100.00
19831;BME280;10076;52.008;4.708;2022-08-01T07:36:15;101910.56;;;21.39;100.00
19831;BME280;10076;52.008;4.708;2022-08-01T07:38:40;101915.53;;;21.34;100.00
19831;BME280;10076;52.008;4.708;2022-08-01T07:41:07;101914.31;;;21.28;100.00
19831;BME280;10076;52.008;4.708;2022-08-01T07:43:32;101924.69;;;21.41;100.00
19831;BME280;10076;52.008;4.708;2022-08-01T07:45:57;101929.91;;;21.25;100.00
19831;BME280;10076;52.008;4.708;2022-08-01T07:48:23;101943.06;;;21.55;100.00
19831;BME280;10076;52.008;4.708;2022-08-01T07:50:50;101933.53;;;21.51;100.00
19831;BME280;10076;52.008;4.708;2022-08-01T07:53:16;101939.44;;;21.63;100.00
19831;BME280;10076;52.008;4.708;2022-08-01T07:55:41;101937.44;;;21.83;100.00
19831;BME280;10076;52.008;4.708;2022-08-01T07:58:06;101934.59;;;21.84;100.00
19831;BME280;10076;52.008;4.708;2022-08-01T08:00:32;101937.91;;;21.96;100.00
19831;BME280;10076;52.008;4.708;2022-08-01T08:02:57;101945.97;;;22.13;100.00
19831;BME280;10076;52.008;4.708;2022-08-01T08:05:27;101945.13;;;22.30;100.00
19831;BME280;10076;52.008;4.708;2022-08-01T08:07:52;101950.41;;;22.57;100.00
19831;BME280;10076;52.008;4.708;2022-08-01T08:10:18;101947.34;;;22.52;100.00
19831;BME280;10076;52.008;4.708;2022-08-01T08:12:43;101946.38;;;22.61;100.00
19831;BME280;10076;52.008;4.708;2022-08-01T08:15:11;101946.59;;;22.67;100.00
19831;BME280;10076;52.008;4.708;2022-08-01T08:17:36;101949.84;;;22.79;100.00
19831;BME280;10076;52.008;4.708;2022-08-01T08:20:03;101947.00;;;23.05;100.00
19831;BME280;10076;52.008;4.708;2022-08-01T08:22:29;101949.44;;;23.16;100.00
19831;BME280;10076;52.008;4.708;2022-08-01T08:24:54;101953.88;;;23.41;100.00
19831;BME280;10076;52.008;4.708;2022-08-01T08:27:19;101943.81;;;23.43;100.00
19831;BME280;10076;52.008;4.708;2022-08-01T08:29:44;101950.53;;;23.47;100.00
19831;BME280;10076;52.008;4.708;2022-08-01T08:32:10;101953.13;;;23.65;100.00
19831;BME280;10076;52.008;4.708;2022-08-01T08:34:35;101957.91;;;23.78;100.00
19831;BME280;10076;52.008;4.708;2022-08-01T08:37:01;101947.81;;;23.88;100.00
19831;BME280;10076;52.008;4.708;2022-08-01T08:39:26;101955.44;;;24.01;100.00
19831;BME280;10076;52.008;4.708;2022-08-01T08:41:55;101953.06;;;24.14;100.00
19831;BME280;10076;52.008;4.708;2022-08-01T08:44:21;101948.84;;;24.19;100.00
19831;BME280;10076;52.008;4.708;2022-08-01T08:46:49;101953.59;;;24.17;100.00
19831;BME280;10076;52.008;4.708;2022-08-01T08:49:20;101956.78;;;24.37;100.00
19831;BME280;10076;52.008;4.708;2022-08-01T08:51:48;101954.09;;;24.52;100.00
19831;BME280;10076;52.008;4.708;2022-08-01T08:54:15;101950.53;;;24.68;100.00
19831;BME280;10076;52.008;4.708;2022-08-01T08:56:42;101953.19;;;24.84;100.00
19831;BME280;10076;52.008;4.708;2022-08-01T08:59:08;101955.16;;;25.13;100.00
19831;BME280;10076;52.008;4.708;2022-08-01T09:01:36;101957.66;;;25.23;100.00
19831;BME280;10076;52.008;4.708;2022-08-01T09:04:04;101960.59;;;25.44;100.00
19831;BME280;10076;52.008;4.708;2022-08-01T09:06:31;101957.34;;;25.86;100.00
19831;BME280;10076;52.008;4.708;2022-08-01T09:08:57;101963.91;;;26.14;100.00
19831;BME280;10076;52.008;4.708;2022-08-01T09:11:23;101957.41;;;26.46;100.00
19831;BME280;10076;52.008;4.708;2022-08-01T09:14:21;101956.97;;;26.56;100.00
19831;BME280;10076;52.008;4.708;2022-08-01T09:17:04;101966.91;;;26.78;100.00
19831;BME280;10076;52.008;4.708;2022-08-01T09:19:42;101966.09;;;26.92;100.00
19831;BME280;10076;52.008;4.708;2022-08-01T09:22:09;101958.94;;;27.14;100.00
19831;BME280;10076;52.008;4.708;2022-08-01T09:24:36;101963.41;;;27.35;100.00
19831;BME280;10076;52.008;4.708;2022-08-01T09:27:18;101973.28;;;27.57;100.00
19831;BME280;10076;52.008;4.708;2022-08-01T09:29:44;101977.13;;;27.98;100.00
19831;BME280;10076;52.008;4.708;2022-08-01T09:32:10;101968.69;;;28.28;100.00
19831;BME280;10076;52.008;4.708;2022-08-01T09:34:35;101981.41;;;28.49;100.00
19831;BME280;10076;52.008;4.708;2022-08-01T09:37:02;101978.78;;;28.34;100.00
19831;BME280;10076;52.008;4.708;2022-08-01T09:39:29;101979.31;;;28.09;100.00
19831;BME280;10076;52.008;4.708;2022-08-01T09:41:57;101986.63;;;28.23;100.00
19831;BME280;10076;52.008;4.708;2022-08-01T09:44:42;101986.63;;;28.71;100.00
19831;BME280;10076;52.008;4.708;2022-08-01T09:47:08;101979.91;;;28.94;100.00
19831;BME280;10076;52.008;4.708;2022-08-01T09:49:36;101980.75;;;29.29;100.00
19831;BME280;10076;52.008;4.708;2022-08-01T09:52:15;101981.34;;;30.11;100.00
19831;BME280;10076;52.008;4.708;2022-08-01T09:54:43;101987.38;;;29.94;100.00
19831;BME280;10076;52.008;4.708;2022-08-01T09:57:19;101989.56;;;30.56;100.00
19831;BME280;10076;52.008;4.708;2022-08-01T09:59:47;101987.31;;;31.49;100.00
19831;BME280;10076;52.008;4.708;2022-08-01T10:02:14;101991.53;;;32.08;100.00
19831;BME280;10076;52.008;4.708;2022-08-01T10:04:50;101998.75;;;32.57;100.00
19831;BME280;10076;52.008;4.708;2022-08-01T10:07:17;101991.53;;;33.47;100.00
19831;BME280;10076;52.008;4.708;2022-08-01T10:09:43;101992.09;;;34.43;97.59
19831;BME280;10076;52.008;4.708;2022-08-01T10:12:10;101990.28;;;34.90;92.93
19831;BME280;10076;52.008;4.708;2022-08-01T10:14:38;101994.00;;;35.18;88.82
19831;BME280;10076;52.008;4.708;2022-08-01T10:17:03;101987.50;;;35.35;95.27
19831;BME280;10076;52.008;4.708;2022-08-01T10:19:32;101995.66;;;35.19;90.48
19831;BME280;10076;52.008;4.708;2022-08-01T10:21:58;101989.41;;;34.55;92.54
19831;BME280;10076;52.008;4.708;2022-08-01T10:24:25;101990.13;;;34.73;90.91
19831;BME280;10076;52.008;4.708;2022-08-01T10:26:54;101983.22;;;35.16;86.03
19831;BME280;10076;52.008;4.708;2022-08-01T10:29:20;101995.84;;;36.02;87.08
19831;BME280;10076;52.008;4.708;2022-08-01T10:31:47;101989.09;;;36.70;79.41
19831;BME280;10076;52.008;4.708;2022-08-01T10:34:13;101982.34;;;36.45;78.15
19831;BME280;10076;52.008;4.708;2022-08-01T10:36:42;101987.56;;;36.02;79.23
19831;BME280;10076;52.008;4.708;2022-08-01T10:39:10;101990.75;;;36.39;76.58
19831;BME280;10076;52.008;4.708;2022-08-01T10:41:36;101992.69;;;36.27;78.58
19831;BME280;10076;52.008;4.708;2022-08-01T10:44:03;101996.94;;;35.51;81.87
19831;BME280;10076;52.008;4.708;2022-08-01T10:46:30;101986.91;;;34.65;86.04
19831;BME280;10076;52.008;4.708;2022-08-01T10:49:07;101982.88;;;33.50;90.12
19831;BME280;10076;52.008;4.708;2022-08-01T10:51:37;102001.28;;;32.83;96.62
19831;BME280;10076;52.008;4.708;2022-08-01T10:54:05;101986.38;;;33.21;96.80
19831;BME280;10076;52.008;4.708;2022-08-01T10:56:46;101983.22;;;34.19;87.98
19831;BME280;10076;52.008;4.708;2022-08-01T10:59:26;101988.03;;;35.72;84.64
19831;BME280;10076;52.008;4.708;2022-08-01T11:02:04;101989.91;;;36.71;79.05
19831;BME280;10076;52.008;4.708;2022-08-01T11:04:34;101995.03;;;37.33;77.84
19831;BME280;10076;52.008;4.708;2022-08-01T11:07:04;101990.28;;;37.29;73.40
19831;BME280;10076;52.008;4.708;2022-08-01T11:09:38;101999.59;;;37.65;73.24
19831;BME280;10076;52.008;4.708;2022-08-01T11:12:09;101994.03;;;37.39;69.19
19831;BME280;10076;52.008;4.708;2022-08-01T11:25:27;101995.63;;;32.54;89.62
19831;BME280;10076;52.008;4.708;2022-08-01T11:30:39;101997.47;;;31.42;99.82
19831;BME280;10076;52.008;4.708;2022-08-01T11:33:04;101995.41;;;31.81;100.00
19831;BME280;10076;52.008;4.708;2022-08-01T11:35:31;102000.22;;;32.53;95.91
19831;BME280;10076;52.008;4.708;2022-08-01T11:37:56;101998.22;;;32.91;91.70
19831;BME280;10076;52.008;4.708;2022-08-01T11:40:28;101997.56;;;34.43;87.36
19831;BME280;10076;52.008;4.708;2022-08-01T11:45:53;102002.25;;;39.84;59.80
19831;BME280;10076;52.008;4.708;2022-08-01T11:48:24;102002.88;;;41.50;53.91
19831;BME280;10076;52.008;4.708;2022-08-01T11:50:51;101996.34;;;43.46;51.02
19831;BME280;10076;52.008;4.708;2022-08-01T11:53:17;102005.84;;;43.17;48.20
19831;BME280;10076;52.008;4.708;2022-08-01T11:55:49;102000.44;;;41.29;51.54
19831;BME280;10076;52.008;4.708;2022-08-01T11:58:16;102000.19;;;41.83;49.87
19831;BME280;10076;52.008;4.708;2022-08-01T12:00:41;101996.94;;;43.43;47.68
19831;BME280;10076;52.008;4.708;2022-08-01T12:03:14;102011.03;;;44.48;44.23
19831;BME280;10076;52.008;4.708;2022-08-01T12:05:43;102004.06;;;45.41;43.51
19831;BME280;10076;52.008;4.708;2022-08-01T12:08:11;102000.13;;;46.83;40.97
19831;BME280;10076;52.008;4.708;2022-08-01T12:10:36;102010.44;;;47.99;38.54
19831;BME280;10076;52.008;4.708;2022-08-01T12:13:04;102006.81;;;48.66;35.91
19831;BME280;10076;52.008;4.708;2022-08-01T12:15:35;102007.50;;;48.12;33.72
19831;BME280;10076;52.008;4.708;2022-08-01T12:18:02;102004.28;;;46.64;36.00
19831;BME280;10076;52.008;4.708;2022-08-01T12:20:32;102005.59;;;45.74;35.45
19831;BME280;10076;52.008;4.708;2022-08-01T12:23:03;101999.22;;;45.01;38.01
19831;BME280;10076;52.008;4.708;2022-08-01T12:25:31;101999.38;;;43.49;36.59
19831;BME280;10076;52.008;4.708;2022-08-01T12:28:00;101992.44;;;40.97;40.32
19831;BME280;10076;52.008;4.708;2022-08-01T12:30:26;101989.22;;;39.19;45.03
19831;BME280;10076;52.008;4.708;2022-08-01T12:32:53;101975.69;;;38.50;48.89
19831;BME280;10076;52.008;4.708;2022-08-01T12:35:24;101980.34;;;39.12;48.15
19831;BME280;10076;52.008;4.708;2022-08-01T12:37:53;101974.09;;;39.92;45.60
19831;BME280;10076;52.008;4.708;2022-08-01T12:40:26;101987.72;;;40.58;44.16
19831;BME280;10076;52.008;4.708;2022-08-01T12:42:54;101984.44;;;40.71;42.18
19831;BME280;10076;52.008;4.708;2022-08-01T12:45:26;101992.72;;;40.41;43.69
19831;BME280;10076;52.008;4.708;2022-08-01T12:47:52;101987.19;;;39.51;44.58
19831;BME280;10076;52.008;4.708;2022-08-01T12:50:21;101981.81;;;38.88;44.92
19831;BME280;10076;52.008;4.708;2022-08-01T12:52:50;101973.44;;;38.42;45.68
19831;BME280;10076;52.008;4.708;2022-08-01T12:55:21;101977.38;;;37.98;47.28
19831;BME280;10076;52.008;4.708;2022-08-01T12:58:03;101978.31;;;37.39;48.65
19831;BME280;10076;52.008;4.708;2022-08-01T13:00:28;101975.66;;;36.90;49.05
19831;BME280;10076;52.008;4.708;2022-08-01T13:03:20;101968.09;;;36.20;49.62
19831;BME280;10076;52.008;4.708;2022-08-01T13:05:56;101963.81;;;35.96;50.25
19831;BME280;10076;52.008;4.708;2022-08-01T13:08:29;101967.22;;;35.76;53.08
19831;BME280;10076;52.008;4.708;2022-08-01T13:11:03;101961.16;;;35.62;51.51
19831;BME280;10076;52.008;4.708;2022-08-01T13:13:51;101967.59;;;35.17;54.65
19831;BME280;10076;52.008;4.708;2022-08-01T13:16:24;101965.91;;;34.70;55.05
19831;BME280;10076;52.008;4.708;2022-08-01T13:18:54;101961.06;;;34.32;56.93